createdAt,value
2024-03-05T00:01:09.072Z,18.27
2024-03-05T00:03:37.377Z,17.80
2024-03-05T00:06:07.298Z,17.30
2024-03-05T00:08:35.615Z,17.67
2024-03-05T00:11:04.292Z,17.45
2024-03-05T00:13:34.194Z,17.23
2024-03-05T00:16:05.683Z,18.15
2024-03-05T00:18:34.067Z,17.50
2024-03-05T00:21:02.255Z,19.55
2024-03-05T00:23:30.681Z,19.67
2024-03-05T00:25:58.998Z,19.05
2024-03-05T00:28:27.372Z,19.77
2024-03-05T00:30:55.559Z,17.83
2024-03-05T00:33:25.936Z,17.40
2024-03-05T00:35:54.249Z,17.63
2024-03-05T00:38:28.841Z,17.88
2024-03-05T00:41:01.931Z,19.98
2024-03-05T00:43:30.185Z,19.13
2024-03-05T00:45:58.530Z,20.17
2024-03-05T00:48:29.050Z,19.48
2024-03-05T00:50:57.218Z,17.67
2024-03-05T00:53:25.276Z,19.75
2024-03-05T00:55:53.582Z,18.35
2024-03-05T00:58:21.939Z,17.80
2024-03-05T01:00:50.497Z,18.83
2024-03-05T01:03:18.619Z,19.17
2024-03-05T01:05:48.214Z,18.60
2024-03-05T01:08:16.324Z,18.27
2024-03-05T01:10:46.609Z,18.73
2024-03-05T01:13:15.614Z,20.58
2024-03-05T01:15:43.805Z,19.60
2024-03-05T01:18:11.918Z,19.25
2024-03-05T01:20:42.671Z,20.58
2024-03-05T01:23:13.116Z,19.50
2024-03-05T01:25:41.508Z,18.13
2024-03-05T01:28:09.774Z,18.95
2024-03-05T01:30:38.077Z,19.48
2024-03-05T01:33:10.525Z,19.80
2024-03-05T01:35:39.471Z,19.50
2024-03-05T01:38:07.608Z,20.42
2024-03-05T01:40:37.079Z,20.05
2024-03-05T01:43:05.768Z,18.95
2024-03-05T01:45:34.574Z,19.02
2024-03-05T01:48:03.457Z,20.90
2024-03-05T01:50:32.203Z,21.77
2024-03-05T01:53:00.658Z,20.20
2024-03-05T01:55:28.935Z,21.65
2024-03-05T01:57:59.674Z,20.25
2024-03-05T02:00:28.943Z,21.60
2024-03-05T02:02:57.289Z,20.50
2024-03-05T02:05:25.901Z,21.60
2024-03-05T02:07:55.716Z,21.08
2024-03-05T02:10:23.876Z,21.65
2024-03-05T02:12:52.164Z,21.92
2024-03-05T02:15:22.115Z,22.88
2024-03-05T02:17:50.351Z,22.88
2024-03-05T02:20:18.634Z,21.52
2024-03-05T02:22:48.467Z,22.23
2024-03-05T02:25:19.186Z,23.50
2024-03-05T02:27:48.640Z,20.55
2024-03-05T02:30:16.931Z,22.65
2024-03-05T02:32:45.961Z,21.48
2024-03-05T02:35:14.523Z,22.65
2024-03-05T02:37:43.773Z,22.42
2024-03-05T02:40:15.671Z,20.80
2024-03-05T02:42:44.467Z,20.73
2024-03-05T02:45:14.214Z,21.13
2024-03-05T02:47:42.796Z,21.90
2024-03-05T02:50:12.477Z,21.83
2024-03-05T02:52:42.061Z,22.83
2024-03-05T02:55:11.221Z,22.17
2024-03-05T02:57:42.980Z,23.02
2024-03-05T03:00:20.133Z,22.13
2024-03-05T03:02:50.072Z,22.42
2024-03-05T03:05:18.797Z,21.65
2024-03-05T03:07:47.202Z,22.40
2024-03-05T03:10:16.332Z,22.23
2024-03-05T03:12:49.779Z,22.20
2024-03-05T03:15:20.002Z,22.08
2024-03-05T03:17:48.593Z,23.10
2024-03-05T03:20:17.356Z,21.65
2024-03-05T03:22:45.949Z,20.33
2024-03-05T03:25:14.639Z,22.40
2024-03-05T03:27:43.184Z,22.38
2024-03-05T03:30:19.109Z,22.58
2024-03-05T03:32:48.078Z,22.33
2024-03-05T03:35:16.863Z,21.38
2024-03-05T03:37:44.970Z,22.35
2024-03-05T03:40:22.004Z,24.90
2024-03-05T03:42:52.445Z,22.77
2024-03-05T03:45:22.605Z,24.73
2024-03-05T03:47:51.339Z,23.70
2024-03-05T03:50:19.615Z,21.95
2024-03-05T03:52:47.717Z,24.95
2024-03-05T03:55:16.804Z,23.77
2024-03-05T03:57:46.845Z,24.05
2024-03-05T04:00:19.213Z,24.05
2024-03-05T04:02:48.934Z,25.13
2024-03-05T04:05:17.606Z,24.55
2024-03-05T04:07:45.797Z,25.38
2024-03-05T04:10:14.551Z,24.58
2024-03-05T04:12:42.806Z,24.90
2024-03-05T04:15:13.513Z,25.23
2024-03-05T04:17:42.412Z,26.20
2024-03-05T04:20:15.902Z,24.95
2024-03-05T04:22:45.165Z,26.63
2024-03-05T04:25:14.937Z,24.23
2024-03-05T04:27:47.147Z,25.05
2024-03-05T04:30:16.264Z,26.92
2024-03-05T04:32:58.827Z,25.20
2024-03-05T04:35:30.583Z,25.33
2024-03-05T04:37:59.724Z,25.83
2024-03-05T04:40:28.289Z,25.92
2024-03-05T04:42:56.255Z,23.77
2024-03-05T04:45:24.504Z,23.45
2024-03-05T04:47:52.895Z,25.63
2024-03-05T04:50:21.889Z,25.98
2024-03-05T04:52:53.901Z,26.45
2024-03-05T04:55:23.154Z,25.30
2024-03-05T04:57:52.089Z,26.48
2024-03-05T05:00:24.262Z,25.67
2024-03-05T05:02:53.586Z,28.52
2024-03-05T05:05:26.464Z,26.05
2024-03-05T05:07:58.505Z,24.90
2024-03-05T05:10:26.944Z,24.13
2024-03-05T05:12:55.422Z,25.98
2024-03-05T05:15:25.052Z,23.80
2024-03-05T05:17:53.909Z,26.73
2024-03-05T05:20:23.146Z,25.83
2024-03-05T05:22:51.662Z,25.73
2024-03-05T05:25:23.287Z,25.38
2024-03-05T05:27:52.289Z,25.05
2024-03-05T05:30:21.965Z,26.05
2024-03-05T05:32:50.437Z,24.30
2024-03-05T05:35:20.137Z,26.58
2024-03-05T05:37:48.716Z,26.73
2024-03-05T05:40:21.320Z,26.73
2024-03-05T05:42:52.679Z,25.88
2024-03-05T05:45:22.962Z,25.92
2024-03-05T05:47:53.293Z,26.67
2024-03-05T05:50:23.997Z,27.38
2024-03-05T05:52:55.410Z,27.08
2024-03-05T05:55:26.717Z,25.95
2024-03-05T05:57:58.331Z,26.90
2024-03-05T06:00:34.958Z,24.92
2024-03-05T06:03:06.004Z,25.63
2024-03-05T06:05:36.541Z,27.48
2024-03-05T06:08:06.173Z,25.88
2024-03-05T06:10:34.315Z,26.00
2024-03-05T06:13:04.156Z,25.67
2024-03-05T06:15:32.232Z,25.40
2024-03-05T06:18:01.898Z,25.00
2024-03-05T06:20:30.292Z,26.40
2024-03-05T06:23:00.340Z,23.80
2024-03-05T06:25:29.358Z,26.50
2024-03-05T06:27:57.615Z,27.45
2024-03-05T06:30:27.425Z,24.38
2024-03-05T06:32:56.483Z,26.35
2024-03-05T06:35:26.340Z,28.58
2024-03-05T06:37:55.201Z,25.98
2024-03-05T06:40:26.535Z,27.13
2024-03-05T06:43:04.552Z,26.25
2024-03-05T06:45:36.650Z,26.10
2024-03-05T06:50:42.940Z,25.67
2024-03-05T06:53:30.048Z,26.23
2024-03-05T06:56:16.546Z,25.48
2024-03-05T06:58:46.058Z,31.63
2024-03-05T07:01:16.409Z,33.53
2024-03-05T07:03:44.987Z,24.95
2024-03-05T07:06:14.680Z,25.80
2024-03-05T07:08:44.150Z,23.48
2024-03-05T07:11:13.632Z,24.30
2024-03-05T07:13:45.305Z,23.73
2024-03-05T07:16:17.770Z,25.05
2024-03-05T07:18:48.601Z,22.80
2024-03-05T07:21:18.596Z,24.88
2024-03-05T07:23:47.692Z,24.20
2024-03-05T07:26:16.377Z,24.58
2024-03-05T07:28:45.298Z,24.73
2024-03-05T07:31:15.984Z,23.33
2024-03-05T07:33:45.908Z,24.80
2024-03-05T07:36:15.155Z,23.77
2024-03-05T07:38:43.382Z,23.83
2024-03-05T07:41:18.056Z,23.60
2024-03-05T07:43:54.584Z,23.00
2024-03-05T07:46:24.187Z,23.50
2024-03-05T07:48:52.373Z,24.33
2024-03-05T07:51:24.871Z,24.80
2024-03-05T07:53:57.793Z,24.85
2024-03-05T07:56:25.979Z,23.92
2024-03-05T07:58:54.319Z,24.95
2024-03-05T08:01:24.082Z,25.08
2024-03-05T08:03:52.828Z,25.75
2024-03-05T08:06:20.933Z,24.75
2024-03-05T08:08:49.021Z,26.70
2024-03-05T08:11:17.719Z,24.98
2024-03-05T08:13:46.966Z,24.50
2024-03-05T08:16:15.693Z,26.08
2024-03-05T08:18:45.659Z,27.58
2024-03-05T08:21:14.794Z,29.00
2024-03-05T08:23:43.363Z,28.95
2024-03-05T08:26:12.535Z,28.25
2024-03-05T08:28:41.497Z,27.70
2024-03-05T08:31:11.645Z,29.35
2024-03-05T08:33:39.774Z,28.23
2024-03-05T08:36:09.452Z,28.90
2024-03-05T08:38:37.980Z,28.67
2024-03-05T08:41:06.952Z,30.23
2024-03-05T08:43:35.248Z,29.92
2024-03-05T08:46:05.582Z,28.38
2024-03-05T08:48:33.672Z,26.75
2024-03-05T08:51:01.875Z,30.42
2024-03-05T08:53:31.273Z,30.25
2024-03-05T08:55:59.567Z,30.00
2024-03-05T08:58:28.388Z,30.60
2024-03-05T09:00:56.626Z,32.65
2024-03-05T09:03:24.724Z,30.17
2024-03-05T09:05:53.229Z,31.45
2024-03-05T09:08:21.341Z,31.48
2024-03-05T09:10:51.265Z,33.63
2024-03-05T09:13:19.597Z,34.05
2024-03-05T09:15:47.821Z,32.88
2024-03-05T09:18:17.959Z,33.10
2024-03-05T09:20:46.243Z,34.10
2024-03-05T09:23:14.305Z,36.95
2024-03-05T09:25:43.585Z,35.42
2024-03-05T09:28:13.572Z,32.22
2024-03-05T09:30:42.161Z,35.67
2024-03-05T09:33:11.756Z,33.97
2024-03-05T09:35:41.060Z,32.55
2024-03-05T09:38:09.578Z,34.78
2024-03-05T09:40:40.060Z,33.67
2024-03-05T09:43:09.487Z,33.08
2024-03-05T09:45:40.047Z,34.45
2024-03-05T09:48:10.419Z,31.45
2024-03-05T09:50:39.052Z,31.77
2024-03-05T09:53:07.735Z,29.63
2024-03-05T09:55:36.044Z,29.02
2024-03-05T09:58:10.008Z,28.42
2024-03-05T10:00:39.723Z,29.63
2024-03-05T10:03:09.589Z,29.30
2024-03-05T10:05:39.001Z,30.60
2024-03-05T10:08:08.101Z,30.40
2024-03-05T10:10:38.715Z,30.15
2024-03-05T10:13:07.759Z,29.85
2024-03-05T10:15:38.512Z,31.25
2024-03-05T10:18:08.989Z,32.42
2024-03-05T10:20:39.106Z,31.90
2024-03-05T10:23:09.203Z,31.73
2024-03-05T10:25:38.082Z,30.40
2024-03-05T10:28:10.037Z,28.77
2024-03-05T10:30:39.145Z,30.85
2024-03-05T10:33:09.900Z,28.73
2024-03-05T10:35:39.700Z,26.17
2024-03-05T10:38:12.046Z,30.95
2024-03-05T10:40:41.320Z,29.52
2024-03-05T10:43:10.968Z,27.23
2024-03-05T10:45:42.145Z,27.70
2024-03-05T10:48:16.641Z,25.02
2024-03-05T10:50:50.040Z,30.05
2024-03-05T10:53:18.733Z,27.58
2024-03-05T10:55:52.641Z,29.05
2024-03-05T10:58:42.964Z,26.70
2024-03-05T11:01:14.564Z,28.17
2024-03-05T11:03:46.269Z,29.00
2024-03-05T11:06:18.174Z,26.90
2024-03-05T11:08:46.904Z,27.30
2024-03-05T11:11:20.317Z,25.80
2024-03-05T11:13:50.752Z,26.08
2024-03-05T11:16:20.956Z,27.27
2024-03-05T11:18:54.244Z,25.25
2024-03-05T11:21:25.179Z,26.65
2024-03-05T11:23:59.402Z,28.92
2024-03-05T11:26:30.218Z,28.02
2024-03-05T11:29:07.074Z,27.05
2024-03-05T11:31:35.670Z,28.02
2024-03-05T11:34:12.736Z,28.33
2024-03-05T11:36:41.810Z,28.45
2024-03-05T11:39:16.100Z,26.75
2024-03-05T11:41:45.755Z,30.25
2024-03-05T11:44:14.825Z,28.27
2024-03-05T11:46:44.540Z,31.17
2024-03-05T11:49:14.746Z,27.75
2024-03-05T11:51:44.281Z,27.75
2024-03-05T11:54:14.132Z,30.13
2024-03-05T11:56:44.019Z,24.63
2024-03-05T11:59:13.251Z,27.80
2024-03-05T12:01:43.745Z,29.25
2024-03-05T12:04:13.625Z,26.17
2024-03-05T12:06:44.918Z,25.55
2024-03-05T12:09:21.407Z,27.17
2024-03-05T12:12:03.794Z,27.27
2024-03-05T12:14:34.041Z,28.52
2024-03-05T12:17:05.286Z,30.02
2024-03-05T12:19:38.726Z,30.05
2024-03-05T12:22:10.176Z,29.02
2024-03-05T12:24:38.937Z,30.75
2024-03-05T12:27:07.941Z,30.10
2024-03-05T12:29:37.818Z,30.88
2024-03-05T12:32:07.315Z,26.75
2024-03-05T12:34:37.270Z,28.33
2024-03-05T12:37:09.116Z,27.50
2024-03-05T12:39:38.004Z,22.33
2024-03-05T12:42:07.654Z,24.50
2024-03-05T12:44:36.371Z,16.40
2024-03-05T12:47:14.925Z,17.45
2024-03-05T12:49:47.583Z,21.80
2024-03-05T12:52:20.824Z,20.13
2024-03-05T12:54:58.627Z,25.27
2024-03-05T12:57:27.668Z,17.77
2024-03-05T12:59:55.859Z,21.58
2024-03-05T13:02:24.142Z,16.77
2024-03-05T13:04:56.126Z,18.00
2024-03-05T13:07:26.413Z,15.38
2024-03-05T13:09:55.700Z,15.20
2024-03-05T13:12:24.866Z,17.38
2024-03-05T13:14:53.262Z,11.20
2024-03-05T13:17:22.274Z,7.03
2024-03-05T13:19:50.517Z,3.92
2024-03-05T13:22:21.658Z,3.40
2024-03-05T13:24:49.988Z,3.60
2024-03-05T13:27:18.570Z,3.80
2024-03-05T13:29:47.523Z,3.38
2024-03-05T13:32:16.837Z,3.55
2024-03-05T13:34:45.202Z,4.43
2024-03-05T13:37:13.913Z,4.53
2024-03-05T13:39:47.063Z,4.50
2024-03-05T13:42:15.597Z,5.45
2024-03-05T13:44:43.869Z,5.13
2024-03-05T13:47:12.238Z,4.97
2024-03-05T13:49:40.448Z,5.85
2024-03-05T13:52:09.893Z,5.45
2024-03-05T13:54:38.760Z,5.80
2024-03-05T13:57:08.933Z,5.22
2024-03-05T13:59:37.256Z,4.60
2024-03-05T14:02:09.620Z,4.72
2024-03-05T14:04:38.104Z,4.53
2024-03-05T14:07:06.786Z,3.78
2024-03-05T14:09:35.131Z,3.38
2024-03-05T14:12:03.365Z,3.95
2024-03-05T14:14:33.799Z,4.32
2024-03-05T14:17:02.179Z,4.22
2024-03-05T14:19:30.567Z,3.45
2024-03-05T14:22:01.398Z,3.72
2024-03-05T14:24:30.557Z,3.92
2024-03-05T14:27:01.103Z,3.85
2024-03-05T14:29:30.033Z,5.10
2024-03-05T14:32:00.057Z,6.20
2024-03-05T14:34:28.834Z,5.22
2024-03-05T14:36:57.073Z,6.10
2024-03-05T14:39:25.627Z,5.55
2024-03-05T14:41:53.915Z,6.68
2024-03-05T14:44:22.318Z,6.47
2024-03-05T14:46:50.704Z,6.55
2024-03-05T14:49:20.622Z,6.80
2024-03-05T14:51:48.950Z,7.25
2024-03-05T14:54:18.777Z,6.07
2024-03-05T14:56:47.222Z,5.85
2024-03-05T14:59:15.530Z,6.03
2024-03-05T15:01:44.061Z,5.95
2024-03-05T15:04:12.409Z,5.55
2024-03-05T15:06:42.643Z,6.68
2024-03-05T15:09:13.296Z,7.28
2024-03-05T15:11:41.811Z,6.80
2024-03-05T15:14:10.525Z,6.90
2024-03-05T15:16:38.720Z,8.27
2024-03-05T15:19:07.080Z,8.27
2024-03-05T15:21:35.246Z,7.68
2024-03-05T15:24:06.112Z,8.93
2024-03-05T15:26:35.056Z,7.93
2024-03-05T15:29:03.943Z,7.07
2024-03-05T15:31:33.414Z,7.25
2024-03-05T15:34:01.915Z,6.68
2024-03-05T15:36:30.559Z,6.30
2024-03-05T15:38:59.573Z,5.72
2024-03-05T15:41:29.266Z,5.45
2024-03-05T15:43:57.734Z,5.35
2024-03-05T15:46:25.979Z,5.75
2024-03-05T15:48:54.166Z,5.82
2024-03-05T15:51:22.157Z,5.63
2024-03-05T15:53:50.978Z,5.25
2024-03-05T15:56:25.382Z,4.07
2024-03-05T15:59:12.562Z,5.53
2024-03-05T16:01:42.604Z,4.65
2024-03-05T16:04:30.086Z,5.50
2024-03-05T16:06:59.999Z,5.45
2024-03-05T16:09:29.885Z,4.55
2024-03-05T16:11:59.413Z,4.85
2024-03-05T16:14:29.634Z,4.45
2024-03-05T16:16:57.798Z,4.13
2024-03-05T16:19:26.469Z,3.45
2024-03-05T16:21:55.280Z,4.72
2024-03-05T16:24:23.668Z,3.08
2024-03-05T16:26:52.078Z,3.30
2024-03-05T16:29:20.585Z,4.00
2024-03-05T16:31:50.301Z,3.72
2024-03-05T16:34:20.202Z,3.58
2024-03-05T16:36:50.720Z,3.85
2024-03-05T16:39:20.898Z,3.22
2024-03-05T16:41:50.293Z,3.20
2024-03-05T16:44:18.621Z,3.58
2024-03-05T16:46:47.831Z,3.67
2024-03-05T16:49:17.851Z,3.20
2024-03-05T16:51:46.192Z,3.63
2024-03-05T16:54:15.624Z,2.92
2024-03-05T16:56:45.093Z,3.50
2024-03-05T16:59:14.182Z,4.43
2024-03-05T17:01:42.737Z,4.68
2024-03-05T17:04:19.001Z,3.25
2024-03-05T17:06:48.873Z,3.53
2024-03-05T17:09:17.656Z,3.65
2024-03-05T17:11:46.663Z,3.83
2024-03-05T17:14:15.274Z,3.95
2024-03-05T17:16:47.103Z,3.88
2024-03-05T17:19:15.905Z,4.15
2024-03-05T17:21:44.035Z,4.43
2024-03-05T17:24:14.611Z,3.58
2024-03-05T17:26:43.443Z,3.92
2024-03-05T17:29:12.552Z,3.47
2024-03-05T17:31:41.227Z,4.25
2024-03-05T17:34:09.904Z,3.55
2024-03-05T17:36:38.454Z,4.03
2024-03-05T17:39:11.620Z,7.53
2024-03-05T17:41:41.749Z,4.10
2024-03-05T17:44:10.740Z,3.80
2024-03-05T17:46:40.330Z,4.35
2024-03-05T17:49:08.558Z,4.10
2024-03-05T17:51:37.805Z,4.10
2024-03-05T17:54:07.103Z,3.85
2024-03-05T17:56:35.428Z,4.25
2024-03-05T17:59:05.962Z,3.95
2024-03-05T18:01:36.405Z,4.90
2024-03-05T18:04:05.938Z,4.55
2024-03-05T18:06:34.107Z,3.97
2024-03-05T18:09:03.637Z,4.07
2024-03-05T18:11:32.859Z,3.70
2024-03-05T18:14:01.603Z,3.60
2024-03-05T18:16:31.692Z,3.90
2024-03-05T18:19:00.334Z,4.30
2024-03-05T18:21:29.406Z,4.63
2024-03-05T18:23:58.001Z,4.50
2024-03-05T18:26:27.653Z,4.38
2024-03-05T18:28:56.372Z,3.83
2024-03-05T18:31:31.162Z,4.45
2024-03-05T18:34:05.571Z,3.70
2024-03-05T18:36:34.505Z,4.05
2024-03-05T18:39:09.563Z,3.22
2024-03-05T18:41:37.992Z,3.70
2024-03-05T18:44:06.622Z,4.28
2024-03-05T18:46:35.438Z,4.43
2024-03-05T18:49:06.536Z,4.85
2024-03-05T18:51:35.928Z,4.30
2024-03-05T18:54:05.119Z,4.40
2024-03-05T18:56:35.351Z,4.25
2024-03-05T18:59:04.876Z,3.78
2024-03-05T19:01:36.329Z,4.95
2024-03-05T19:04:07.089Z,5.13
2024-03-05T19:06:38.285Z,4.43
2024-03-05T19:09:10.116Z,4.25
2024-03-05T19:11:39.429Z,5.13
2024-03-05T19:14:09.494Z,4.90
2024-03-05T19:16:38.552Z,5.72
2024-03-05T19:19:08.685Z,5.18
2024-03-05T19:21:38.611Z,40.25
2024-03-05T19:24:10.476Z,6.10
2024-03-05T19:26:39.215Z,5.70
2024-03-05T19:29:08.426Z,4.25
2024-03-05T19:31:38.530Z,7.78
2024-03-05T19:34:09.227Z,4.53
2024-03-05T19:36:38.656Z,4.35
2024-03-05T19:39:13.970Z,4.03
2024-03-05T19:41:44.353Z,4.22
2024-03-05T19:44:13.559Z,4.93
2024-03-05T19:46:42.683Z,4.78
2024-03-05T19:49:12.913Z,4.97
2024-03-05T19:51:41.780Z,4.30
2024-03-05T19:54:11.870Z,5.72
2024-03-05T19:56:43.071Z,5.05
2024-03-05T19:59:12.980Z,5.07
2024-03-05T20:01:42.793Z,4.90
2024-03-05T20:04:13.100Z,5.90
2024-03-05T20:06:42.587Z,5.90
2024-03-05T20:09:17.649Z,5.55
2024-03-05T20:14:17.735Z,5.55
2024-03-05T20:16:48.363Z,6.75
2024-03-05T20:19:19.319Z,7.45
2024-03-05T20:21:50.111Z,6.65
2024-03-05T20:24:19.408Z,6.63
2024-03-05T20:26:48.551Z,6.10
2024-03-05T20:29:17.695Z,6.35
2024-03-05T20:31:46.624Z,5.72
2024-03-05T20:34:16.626Z,6.07
2024-03-05T20:36:46.775Z,5.30
2024-03-05T20:39:14.517Z,4.70
2024-03-05T20:41:44.468Z,5.18
2024-03-05T20:44:14.412Z,5.57
2024-03-05T20:46:43.196Z,5.95
2024-03-05T20:49:12.161Z,5.78
2024-03-05T20:51:41.097Z,5.82
2024-03-05T20:54:11.636Z,6.07
2024-03-05T20:56:40.863Z,6.53
2024-03-05T20:59:09.789Z,6.30
2024-03-05T21:01:40.297Z,6.35
2024-03-05T21:04:12.403Z,6.55
2024-03-05T21:06:41.405Z,7.03
2024-03-05T21:09:11.414Z,7.22
2024-03-05T21:11:40.998Z,6.20
2024-03-05T21:14:10.488Z,5.93
2024-03-05T21:16:39.185Z,6.18
2024-03-05T21:19:08.143Z,6.45
2024-03-05T21:21:36.811Z,6.88
2024-03-05T21:24:05.822Z,6.97
2024-03-05T21:31:40.324Z,6.95
2024-03-05T21:34:09.553Z,7.75
2024-03-05T21:36:38.801Z,7.70
2024-03-05T21:39:08.111Z,9.82
2024-03-05T21:41:38.313Z,7.85
2024-03-05T21:44:07.265Z,8.65
2024-03-05T21:46:36.253Z,7.75
2024-03-05T21:49:06.682Z,6.95
2024-03-05T21:51:35.698Z,6.78
2024-03-05T21:54:04.989Z,6.88
2024-03-05T21:56:33.699Z,6.75
2024-03-05T21:59:04.746Z,5.85
2024-03-05T22:01:33.819Z,6.03
2024-03-05T22:04:02.734Z,6.85
2024-03-05T22:06:31.314Z,6.75
2024-03-05T22:09:10.163Z,6.90
2024-03-05T22:11:40.336Z,6.22
2024-03-05T22:14:11.938Z,6.75
2024-03-05T22:16:41.733Z,6.20
2024-03-05T22:19:11.017Z,6.78
2024-03-05T22:21:40.416Z,6.63
2024-03-05T22:24:09.815Z,6.78
2024-03-05T22:26:39.629Z,7.30
2024-03-05T22:29:09.909Z,6.80
2024-03-05T22:31:38.867Z,8.40
2024-03-05T22:34:07.167Z,7.20
2024-03-05T22:36:35.713Z,8.15
2024-03-05T22:39:06.474Z,7.45
2024-03-05T22:41:34.752Z,7.88
2024-03-05T22:44:03.042Z,6.10
2024-03-05T22:46:32.626Z,7.13
2024-03-05T22:49:00.776Z,7.60
2024-03-05T22:51:28.994Z,7.80
2024-03-05T22:53:57.215Z,7.28
2024-03-05T22:56:25.545Z,7.40
2024-03-05T22:58:53.682Z,6.97
2024-03-05T23:01:22.058Z,6.85
2024-03-05T23:03:51.955Z,7.28
2024-03-05T23:06:25.184Z,7.60
2024-03-05T23:08:54.894Z,6.88
2024-03-05T23:11:23.268Z,7.20
2024-03-05T23:13:51.515Z,7.47
2024-03-05T23:16:19.690Z,7.65
2024-03-05T23:18:48.608Z,7.57
2024-03-05T23:21:18.922Z,7.18
2024-03-05T23:23:50.546Z,7.55
2024-03-05T23:26:20.625Z,7.57
2024-03-05T23:28:49.574Z,7.88
2024-03-05T23:31:18.220Z,9.32
2024-03-05T23:33:46.786Z,7.85
2024-03-05T23:36:15.213Z,8.70
2024-03-05T23:38:45.439Z,8.60
2024-03-05T23:41:24.295Z,8.73
2024-03-05T23:43:57.400Z,9.10
2024-03-05T23:46:25.669Z,9.45
2024-03-05T23:48:53.832Z,9.70
2024-03-05T23:51:22.344Z,9.32
2024-03-05T23:53:51.942Z,9.07
2024-03-05T23:56:20.236Z,8.10
2024-03-05T23:58:51.057Z,8.77
